sensor_id;sensor_type;location;lat;lon;timestamp;P1;durP1;ratioP1;P2;durP2;ratioP2
41629;SDS011;27322;49.488;8.480;2023-11-19T00:01:35;3.70;;;1.83;;
41629;SDS011;27322;49.488;8.480;2023-11-19T00:04:01;4.10;;;1.80;;
41629;SDS011;27322;49.488;8.480;2023-11-19T00:06:29;4.75;;;1.60;;
41629;SDS011;27322;49.488;8.480;2023-11-19T00:08:55;3.22;;;1.67;;
41629;SDS011;27322;49.488;8.480;2023-11-19T00:11:21;2.95;;;1.58;;
41629;SDS011;27322;49.488;8.480;2023-11-19T00:13:46;3.10;;;1.50;;
41629;SDS011;27322;49.488;8.480;2023-11-19T00:16:12;3.38;;;1.50;;
41629;SDS011;27322;49.488;8.480;2023-11-19T00:18:37;2.80;;;1.20;;
41629;SDS011;27322;49.488;8.480;2023-11-19T00:21:03;2.78;;;1.30;;
41629;SDS011;27322;49.488;8.480;2023-11-19T00:23:29;3.15;;;1.42;;
41629;SDS011;27322;49.488;8.480;2023-11-19T00:25:54;2.85;;;1.40;;
41629;SDS011;27322;49.488;8.480;2023-11-19T00:28:20;3.38;;;1.35;;
41629;SDS011;27322;49.488;8.480;2023-11-19T00:30:45;3.35;;;1.42;;
41629;SDS011;27322;49.488;8.480;2023-11-19T00:33:11;4.00;;;1.38;;
41629;SDS011;27322;49.488;8.480;2023-11-19T00:35:36;2.80;;;1.38;;
41629;SDS011;27322;49.488;8.480;2023-11-19T00:38:02;2.85;;;1.15;;
41629;SDS011;27322;49.488;8.480;2023-11-19T00:40:29;3.05;;;1.63;;
41629;SDS011;27322;49.488;8.480;2023-11-19T00:42:54;3.35;;;1.40;;
41629;SDS011;27322;49.488;8.480;2023-11-19T00:45:20;3.10;;;1.27;;
41629;SDS011;27322;49.488;8.480;2023-11-19T00:47:48;2.17;;;1.00;;
41629;SDS011;27322;49.488;8.480;2023-11-19T00:50:13;2.45;;;0.98;;
41629;SDS011;27322;49.488;8.480;2023-11-19T00:52:39;2.67;;;1.17;;
41629;SDS011;27322;49.488;8.480;2023-11-19T00:55:05;2.38;;;1.10;;
41629;SDS011;27322;49.488;8.480;2023-11-19T00:57:31;2.80;;;1.02;;
41629;SDS011;27322;49.488;8.480;2023-11-19T00:59:57;2.97;;;1.00;;
41629;SDS011;27322;49.488;8.480;2023-11-19T01:02:26;1.70;;;0.80;;
41629;SDS011;27322;49.488;8.480;2023-11-19T01:04:51;1.98;;;0.90;;
41629;SDS011;27322;49.488;8.480;2023-11-19T01:07:17;1.90;;;0.80;;
41629;SDS011;27322;49.488;8.480;2023-11-19T01:09:42;1.88;;;0.80;;
41629;SDS011;27322;49.488;8.480;2023-11-19T01:12:08;1.80;;;0.73;;
41629;SDS011;27322;49.488;8.480;2023-11-19T01:14:35;1.83;;;0.80;;
41629;SDS011;27322;49.488;8.480;2023-11-19T01:17:01;1.45;;;0.60;;
41629;SDS011;27322;49.488;8.480;2023-11-19T01:19:26;1.80;;;0.70;;
41629;SDS011;27322;49.488;8.480;2023-11-19T01:21:53;1.10;;;0.60;;
41629;SDS011;27322;49.488;8.480;2023-11-19T01:24:19;2.55;;;0.50;;
41629;SDS011;27322;49.488;8.480;2023-11-19T01:26:45;1.00;;;0.55;;
41629;SDS011;27322;49.488;8.480;2023-11-19T01:29:13;1.40;;;0.70;;
41629;SDS011;27322;49.488;8.480;2023-11-19T01:31:42;2.92;;;0.73;;
41629;SDS011;27322;49.488;8.480;2023-11-19T01:34:10;1.77;;;0.45;;
41629;SDS011;27322;49.488;8.480;2023-11-19T01:36:39;2.30;;;0.70;;
41629;SDS011;27322;49.488;8.480;2023-11-19T01:39:04;1.27;;;0.70;;
41629;SDS011;27322;49.488;8.480;2023-11-19T01:41:36;3.28;;;0.70;;
41629;SDS011;27322;49.488;8.480;2023-11-19T01:44:04;0.90;;;0.50;;
41629;SDS011;27322;49.488;8.480;2023-11-19T01:46:31;0.90;;;0.50;;
41629;SDS011;27322;49.488;8.480;2023-11-19T01:48:57;1.02;;;0.50;;
41629;SDS011;27322;49.488;8.480;2023-11-19T01:51:25;1.00;;;0.40;;
41629;SDS011;27322;49.488;8.480;2023-11-19T01:53:51;1.83;;;0.43;;
41629;SDS011;27322;49.488;8.480;2023-11-19T01:56:17;0.95;;;0.50;;
41629;SDS011;27322;49.488;8.480;2023-11-19T01:58:44;2.08;;;0.50;;
41629;SDS011;27322;49.488;8.480;2023-11-19T02:01:10;1.67;;;0.50;;
41629;SDS011;27322;49.488;8.480;2023-11-19T02:03:37;1.10;;;0.50;;
41629;SDS011;27322;49.488;8.480;2023-11-19T02:06:03;2.03;;;0.50;;
41629;SDS011;27322;49.488;8.480;2023-11-19T02:08:29;1.00;;;0.50;;
41629;SDS011;27322;49.488;8.480;2023-11-19T02:10:55;1.55;;;0.45;;
41629;SDS011;27322;49.488;8.480;2023-11-19T02:13:25;0.80;;;0.43;;
41629;SDS011;27322;49.488;8.480;2023-11-19T02:15:51;1.38;;;0.47;;
41629;SDS011;27322;49.488;8.480;2023-11-19T02:18:24;1.10;;;0.40;;
41629;SDS011;27322;49.488;8.480;2023-11-19T02:20:53;0.90;;;0.43;;
41629;SDS011;27322;49.488;8.480;2023-11-19T02:23:22;1.00;;;0.40;;
41629;SDS011;27322;49.488;8.480;2023-11-19T02:28:26;1.50;;;0.60;;
41629;SDS011;27322;49.488;8.480;2023-11-19T02:30:52;0.80;;;0.40;;
41629;SDS011;27322;49.488;8.480;2023-11-19T02:33:18;1.08;;;0.40;;
41629;SDS011;27322;49.488;8.480;2023-11-19T02:35:43;0.90;;;0.50;;
41629;SDS011;27322;49.488;8.480;2023-11-19T02:38:09;1.58;;;0.40;;
41629;SDS011;27322;49.488;8.480;2023-11-19T02:40:35;0.70;;;0.30;;
41629;SDS011;27322;49.488;8.480;2023-11-19T02:43:01;1.35;;;0.50;;
41629;SDS011;27322;49.488;8.480;2023-11-19T02:45:30;0.90;;;0.50;;
41629;SDS011;27322;49.488;8.480;2023-11-19T02:47:56;1.38;;;0.52;;
41629;SDS011;27322;49.488;8.480;2023-11-19T02:50:21;0.80;;;0.40;;
41629;SDS011;27322;49.488;8.480;2023-11-19T02:52:51;0.40;;;0.30;;
41629;SDS011;27322;49.488;8.480;2023-11-19T02:55:18;1.02;;;0.50;;
41629;SDS011;27322;49.488;8.480;2023-11-19T02:57:44;1.20;;;0.47;;
41629;SDS011;27322;49.488;8.480;2023-11-19T03:02:41;1.02;;;0.43;;
41629;SDS011;27322;49.488;8.480;2023-11-19T03:05:18;0.63;;;0.40;;
41629;SDS011;27322;49.488;8.480;2023-11-19T03:07:44;0.88;;;0.50;;
41629;SDS011;27322;49.488;8.480;2023-11-19T03:10:10;1.25;;;0.43;;
41629;SDS011;27322;49.488;8.480;2023-11-19T03:12:39;1.60;;;0.60;;
41629;SDS011;27322;49.488;8.480;2023-11-19T03:15:05;1.25;;;0.60;;
41629;SDS011;27322;49.488;8.480;2023-11-19T03:17:32;1.20;;;0.60;;
41629;SDS011;27322;49.488;8.480;2023-11-19T03:19:58;1.02;;;0.50;;
41629;SDS011;27322;49.488;8.480;2023-11-19T03:22:26;1.15;;;0.57;;
41629;SDS011;27322;49.488;8.480;2023-11-19T03:24:51;1.02;;;0.50;;
41629;SDS011;27322;49.488;8.480;2023-11-19T03:27:17;1.35;;;0.50;;
41629;SDS011;27322;49.488;8.480;2023-11-19T03:29:42;1.45;;;0.50;;
41629;SDS011;27322;49.488;8.480;2023-11-19T03:32:08;1.20;;;0.50;;
41629;SDS011;27322;49.488;8.480;2023-11-19T03:34:33;1.48;;;0.60;;
41629;SDS011;27322;49.488;8.480;2023-11-19T03:36:59;1.10;;;0.60;;
41629;SDS011;27322;49.488;8.480;2023-11-19T03:39:25;1.20;;;0.50;;
41629;SDS011;27322;49.488;8.480;2023-11-19T03:41:52;1.10;;;0.50;;
41629;SDS011;27322;49.488;8.480;2023-11-19T03:44:17;0.90;;;0.60;;
41629;SDS011;27322;49.488;8.480;2023-11-19T03:46:44;1.40;;;0.55;;
41629;SDS011;27322;49.488;8.480;2023-11-19T03:49:09;1.70;;;0.60;;
41629;SDS011;27322;49.488;8.480;2023-11-19T03:51:35;2.47;;;0.70;;
41629;SDS011;27322;49.488;8.480;2023-11-19T03:54:00;1.40;;;0.60;;
41629;SDS011;27322;49.488;8.480;2023-11-19T03:56:26;0.60;;;0.40;;
41629;SDS011;27322;49.488;8.480;2023-11-19T03:58:56;0.95;;;0.60;;
41629;SDS011;27322;49.488;8.480;2023-11-19T04:01:21;0.93;;;0.50;;
41629;SDS011;27322;49.488;8.480;2023-11-19T04:03:47;1.10;;;0.52;;
41629;SDS011;27322;49.488;8.480;2023-11-19T04:06:12;1.02;;;0.50;;
41629;SDS011;27322;49.488;8.480;2023-11-19T04:08:38;2.80;;;0.50;;
41629;SDS011;27322;49.488;8.480;2023-11-19T04:11:03;1.50;;;0.60;;
41629;SDS011;27322;49.488;8.480;2023-11-19T04:13:30;1.23;;;0.43;;
41629;SDS011;27322;49.488;8.480;2023-11-19T04:15:55;1.70;;;0.50;;
41629;SDS011;27322;49.488;8.480;2023-11-19T04:18:21;1.20;;;0.50;;
41629;SDS011;27322;49.488;8.480;2023-11-19T04:20:46;1.20;;;0.60;;
41629;SDS011;27322;49.488;8.480;2023-11-19T04:23:12;0.80;;;0.50;;
41629;SDS011;27322;49.488;8.480;2023-11-19T04:25:37;1.55;;;0.60;;
41629;SDS011;27322;49.488;8.480;2023-11-19T04:28:03;1.83;;;0.60;;
41629;SDS011;27322;49.488;8.480;2023-11-19T04:30:29;1.25;;;0.60;;
41629;SDS011;27322;49.488;8.480;2023-11-19T04:32:56;1.30;;;0.70;;
41629;SDS011;27322;49.488;8.480;2023-11-19T04:35:22;1.35;;;0.70;;
41629;SDS011;27322;49.488;8.480;2023-11-19T04:37:48;1.00;;;0.52;;
41629;SDS011;27322;49.488;8.480;2023-11-19T04:40:14;1.33;;;0.60;;
41629;SDS011;27322;49.488;8.480;2023-11-19T04:42:39;0.70;;;0.40;;
41629;SDS011;27322;49.488;8.480;2023-11-19T04:45:05;0.90;;;0.50;;
41629;SDS011;27322;49.488;8.480;2023-11-19T04:47:32;1.15;;;0.55;;
41629;SDS011;27322;49.488;8.480;2023-11-19T04:49:58;0.93;;;0.40;;
41629;SDS011;27322;49.488;8.480;2023-11-19T04:52:24;2.05;;;0.77;;
41629;SDS011;27322;49.488;8.480;2023-11-19T04:54:49;1.23;;;0.60;;
41629;SDS011;27322;49.488;8.480;2023-11-19T04:57:15;1.02;;;0.50;;
41629;SDS011;27322;49.488;8.480;2023-11-19T04:59:41;1.80;;;0.70;;
41629;SDS011;27322;49.488;8.480;2023-11-19T05:02:06;1.75;;;0.50;;
41629;SDS011;27322;49.488;8.480;2023-11-19T05:04:33;1.63;;;0.50;;
41629;SDS011;27322;49.488;8.480;2023-11-19T05:06:59;0.88;;;0.50;;
41629;SDS011;27322;49.488;8.480;2023-11-19T05:09:24;1.45;;;0.60;;
41629;SDS011;27322;49.488;8.480;2023-11-19T05:11:50;1.52;;;0.60;;
41629;SDS011;27322;49.488;8.480;2023-11-19T05:14:16;1.27;;;0.60;;
41629;SDS011;27322;49.488;8.480;2023-11-19T05:16:41;1.45;;;0.60;;
41629;SDS011;27322;49.488;8.480;2023-11-19T05:19:10;0.82;;;0.50;;
41629;SDS011;27322;49.488;8.480;2023-11-19T05:21:35;1.42;;;0.70;;
41629;SDS011;27322;49.488;8.480;2023-11-19T05:24:01;1.83;;;0.60;;
41629;SDS011;27322;49.488;8.480;2023-11-19T05:26:30;1.85;;;0.70;;
41629;SDS011;27322;49.488;8.480;2023-11-19T05:28:56;1.60;;;0.70;;
41629;SDS011;27322;49.488;8.480;2023-11-19T05:31:21;1.50;;;0.70;;
41629;SDS011;27322;49.488;8.480;2023-11-19T05:33:47;1.70;;;0.70;;
41629;SDS011;27322;49.488;8.480;2023-11-19T05:36:13;1.02;;;0.60;;
41629;SDS011;27322;49.488;8.480;2023-11-19T05:38:38;2.08;;;0.60;;
41629;SDS011;27322;49.488;8.480;2023-11-19T05:41:04;1.50;;;0.70;;
41629;SDS011;27322;49.488;8.480;2023-11-19T05:43:30;0.95;;;0.60;;
41629;SDS011;27322;49.488;8.480;2023-11-19T05:45:56;1.40;;;0.77;;
41629;SDS011;27322;49.488;8.480;2023-11-19T05:48:22;1.90;;;0.80;;
41629;SDS011;27322;49.488;8.480;2023-11-19T05:50:48;2.03;;;0.70;;
41629;SDS011;27322;49.488;8.480;2023-11-19T05:53:15;2.45;;;0.90;;
41629;SDS011;27322;49.488;8.480;2023-11-19T05:55:41;1.45;;;0.70;;
41629;SDS011;27322;49.488;8.480;2023-11-19T05:58:24;1.60;;;0.70;;
41629;SDS011;27322;49.488;8.480;2023-11-19T06:00:51;3.10;;;0.88;;
41629;SDS011;27322;49.488;8.480;2023-11-19T06:03:17;1.70;;;0.90;;
41629;SDS011;27322;49.488;8.480;2023-11-19T06:05:46;2.17;;;0.70;;
41629;SDS011;27322;49.488;8.480;2023-11-19T06:08:12;1.77;;;0.70;;
41629;SDS011;27322;49.488;8.480;2023-11-19T06:10:41;1.60;;;0.88;;
41629;SDS011;27322;49.488;8.480;2023-11-19T06:13:07;2.05;;;0.75;;
41629;SDS011;27322;49.488;8.480;2023-11-19T06:15:35;1.38;;;0.70;;
41629;SDS011;27322;49.488;8.480;2023-11-19T06:18:01;1.42;;;0.70;;
41629;SDS011;27322;49.488;8.480;2023-11-19T06:20:28;1.40;;;0.70;;
41629;SDS011;27322;49.488;8.480;2023-11-19T06:22:55;1.55;;;0.68;;
41629;SDS011;27322;49.488;8.480;2023-11-19T06:25:21;1.48;;;0.70;;
41629;SDS011;27322;49.488;8.480;2023-11-19T06:27:49;3.05;;;0.70;;
41629;SDS011;27322;49.488;8.480;2023-11-19T06:30:15;1.92;;;0.88;;
41629;SDS011;27322;49.488;8.480;2023-11-19T06:32:41;1.92;;;0.70;;
41629;SDS011;27322;49.488;8.480;2023-11-19T06:35:07;1.23;;;0.60;;
41629;SDS011;27322;49.488;8.480;2023-11-19T06:37:33;1.80;;;0.80;;
41629;SDS011;27322;49.488;8.480;2023-11-19T06:39:59;2.13;;;0.88;;
41629;SDS011;27322;49.488;8.480;2023-11-19T06:42:24;1.58;;;0.60;;
41629;SDS011;27322;49.488;8.480;2023-11-19T06:44:50;2.88;;;0.68;;
41629;SDS011;27322;49.488;8.480;2023-11-19T06:47:16;1.30;;;0.60;;
41629;SDS011;27322;49.488;8.480;2023-11-19T06:49:45;1.20;;;0.60;;
41629;SDS011;27322;49.488;8.480;2023-11-19T06:52:11;1.17;;;0.60;;
41629;SDS011;27322;49.488;8.480;2023-11-19T06:54:38;1.77;;;0.70;;
41629;SDS011;27322;49.488;8.480;2023-11-19T06:57:04;2.05;;;0.70;;
41629;SDS011;27322;49.488;8.480;2023-11-19T06:59:30;1.52;;;0.70;;
41629;SDS011;27322;49.488;8.480;2023-11-19T07:01:56;2.45;;;0.70;;
41629;SDS011;27322;49.488;8.480;2023-11-19T07:04:21;1.40;;;0.70;;
41629;SDS011;27322;49.488;8.480;2023-11-19T07:06:47;2.00;;;0.63;;
41629;SDS011;27322;49.488;8.480;2023-11-19T07:09:13;1.25;;;0.60;;
41629;SDS011;27322;49.488;8.480;2023-11-19T07:11:39;1.27;;;0.60;;
41629;SDS011;27322;49.488;8.480;2023-11-19T07:14:06;2.78;;;0.70;;
41629;SDS011;27322;49.488;8.480;2023-11-19T07:16:33;3.75;;;0.85;;
41629;SDS011;27322;49.488;8.480;2023-11-19T07:19:05;1.63;;;0.80;;
41629;SDS011;27322;49.488;8.480;2023-11-19T07:21:31;1.52;;;0.80;;
41629;SDS011;27322;49.488;8.480;2023-11-19T07:23:58;1.73;;;0.85;;
41629;SDS011;27322;49.488;8.480;2023-11-19T07:26:24;2.08;;;1.00;;
41629;SDS011;27322;49.488;8.480;2023-11-19T07:28:50;1.88;;;0.80;;
41629;SDS011;27322;49.488;8.480;2023-11-19T07:31:16;2.25;;;0.90;;
41629;SDS011;27322;49.488;8.480;2023-11-19T07:33:44;3.65;;;1.00;;
41629;SDS011;27322;49.488;8.480;2023-11-19T07:36:10;6.15;;;0.80;;
41629;SDS011;27322;49.488;8.480;2023-11-19T07:38:36;3.70;;;0.80;;
41629;SDS011;27322;49.488;8.480;2023-11-19T07:41:03;2.65;;;0.80;;
41629;SDS011;27322;49.488;8.480;2023-11-19T07:43:30;3.78;;;0.93;;
41629;SDS011;27322;49.488;8.480;2023-11-19T07:45:55;3.28;;;0.70;;
41629;SDS011;27322;49.488;8.480;2023-11-19T07:48:24;2.80;;;1.00;;
41629;SDS011;27322;49.488;8.480;2023-11-19T07:50:50;3.20;;;1.15;;
41629;SDS011;27322;49.488;8.480;2023-11-19T07:53:16;3.00;;;1.00;;
41629;SDS011;27322;49.488;8.480;2023-11-19T07:55:41;2.28;;;1.00;;
41629;SDS011;27322;49.488;8.480;2023-11-19T07:58:08;1.00;;;0.50;;
41629;SDS011;27322;49.488;8.480;2023-11-19T08:00:35;1.52;;;0.60;;
41629;SDS011;27322;49.488;8.480;2023-11-19T08:03:01;1.73;;;0.60;;
41629;SDS011;27322;49.488;8.480;2023-11-19T08:05:26;2.28;;;0.60;;
41629;SDS011;27322;49.488;8.480;2023-11-19T08:07:52;1.65;;;0.60;;
41629;SDS011;27322;49.488;8.480;2023-11-19T08:10:18;1.30;;;0.40;;
41629;SDS011;27322;49.488;8.480;2023-11-19T08:12:44;1.90;;;0.60;;
41629;SDS011;27322;49.488;8.480;2023-11-19T08:15:10;2.10;;;0.60;;
41629;SDS011;27322;49.488;8.480;2023-11-19T08:17:35;2.70;;;0.52;;
41629;SDS011;27322;49.488;8.480;2023-11-19T08:20:01;3.17;;;0.70;;
41629;SDS011;27322;49.488;8.480;2023-11-19T08:22:28;2.25;;;0.50;;
41629;SDS011;27322;49.488;8.480;2023-11-19T08:24:53;1.48;;;0.57;;
41629;SDS011;27322;49.488;8.480;2023-11-19T08:27:19;1.40;;;0.55;;
41629;SDS011;27322;49.488;8.480;2023-11-19T08:29:51;1.65;;;0.60;;
41629;SDS011;27322;49.488;8.480;2023-11-19T08:32:23;1.50;;;0.50;;
41629;SDS011;27322;49.488;8.480;2023-11-19T08:34:49;1.10;;;0.60;;
41629;SDS011;27322;49.488;8.480;2023-11-19T08:37:15;0.98;;;0.50;;
41629;SDS011;27322;49.488;8.480;2023-11-19T08:39:43;1.30;;;0.57;;
41629;SDS011;27322;49.488;8.480;2023-11-19T08:42:08;1.42;;;0.70;;
41629;SDS011;27322;49.488;8.480;2023-11-19T08:44:34;1.23;;;0.60;;
41629;SDS011;27322;49.488;8.480;2023-11-19T08:46:59;1.52;;;0.63;;
41629;SDS011;27322;49.488;8.480;2023-11-19T08:49:25;1.30;;;0.60;;
41629;SDS011;27322;49.488;8.480;2023-11-19T08:51:51;1.70;;;0.77;;
41629;SDS011;27322;49.488;8.480;2023-11-19T08:54:16;2.28;;;0.70;;
41629;SDS011;27322;49.488;8.480;2023-11-19T08:56:42;3.10;;;0.80;;
41629;SDS011;27322;49.488;8.480;2023-11-19T08:59:07;2.17;;;0.85;;
41629;SDS011;27322;49.488;8.480;2023-11-19T09:01:33;2.30;;;1.00;;
41629;SDS011;27322;49.488;8.480;2023-11-19T09:03:59;2.13;;;0.90;;
41629;SDS011;27322;49.488;8.480;2023-11-19T09:06:25;1.50;;;0.63;;
41629;SDS011;27322;49.488;8.480;2023-11-19T09:08:50;2.03;;;0.70;;
41629;SDS011;27322;49.488;8.480;2023-11-19T09:11:16;3.67;;;0.90;;
41629;SDS011;27322;49.488;8.480;2023-11-19T09:13:42;2.97;;;0.98;;
41629;SDS011;27322;49.488;8.480;2023-11-19T09:16:07;2.88;;;0.90;;
41629;SDS011;27322;49.488;8.480;2023-11-19T09:18:34;1.60;;;0.68;;
41629;SDS011;27322;49.488;8.480;2023-11-19T09:21:00;2.00;;;1.00;;
41629;SDS011;27322;49.488;8.480;2023-11-19T09:23:25;2.38;;;0.75;;
41629;SDS011;27322;49.488;8.480;2023-11-19T09:25:52;2.80;;;0.82;;
41629;SDS011;27322;49.488;8.480;2023-11-19T09:28:18;2.65;;;0.90;;
41629;SDS011;27322;49.488;8.480;2023-11-19T09:30:44;2.95;;;0.70;;
41629;SDS011;27322;49.488;8.480;2023-11-19T09:33:09;5.95;;;1.75;;
41629;SDS011;27322;49.488;8.480;2023-11-19T09:35:35;3.85;;;0.98;;
41629;SDS011;27322;49.488;8.480;2023-11-19T09:38:00;4.57;;;1.00;;
41629;SDS011;27322;49.488;8.480;2023-11-19T09:40:26;3.10;;;1.13;;
41629;SDS011;27322;49.488;8.480;2023-11-19T09:42:53;4.38;;;1.10;;
41629;SDS011;27322;49.488;8.480;2023-11-19T09:45:20;3.05;;;1.00;;
41629;SDS011;27322;49.488;8.480;2023-11-19T09:47:46;2.38;;;0.90;;
41629;SDS011;27322;49.488;8.480;2023-11-19T09:50:14;3.17;;;0.80;;
41629;SDS011;27322;49.488;8.480;2023-11-19T09:52:45;3.55;;;0.93;;
41629;SDS011;27322;49.488;8.480;2023-11-19T09:55:14;3.78;;;0.90;;
41629;SDS011;27322;49.488;8.480;2023-11-19T09:57:39;3.63;;;1.00;;
41629;SDS011;27322;49.488;8.480;2023-11-19T10:00:10;2.45;;;0.80;;
41629;SDS011;27322;49.488;8.480;2023-11-19T10:02:38;2.58;;;0.80;;
41629;SDS011;27322;49.488;8.480;2023-11-19T10:05:05;3.30;;;0.85;;
41629;SDS011;27322;49.488;8.480;2023-11-19T10:07:32;2.47;;;0.70;;
41629;SDS011;27322;49.488;8.480;2023-11-19T10:10:02;4.10;;;0.88;;
41629;SDS011;27322;49.488;8.480;2023-11-19T10:12:32;4.32;;;0.75;;
41629;SDS011;27322;49.488;8.480;2023-11-19T10:14:58;4.40;;;0.65;;
41629;SDS011;27322;49.488;8.480;2023-11-19T10:17:28;3.33;;;0.80;;
41629;SDS011;27322;49.488;8.480;2023-11-19T10:19:56;2.22;;;0.70;;
41629;SDS011;27322;49.488;8.480;2023-11-19T10:22:23;1.80;;;0.77;;
41629;SDS011;27322;49.488;8.480;2023-11-19T10:24:50;2.97;;;0.60;;
41629;SDS011;27322;49.488;8.480;2023-11-19T10:27:15;1.85;;;0.70;;
41629;SDS011;27322;49.488;8.480;2023-11-19T10:29:44;2.50;;;0.80;;
41629;SDS011;27322;49.488;8.480;2023-11-19T10:32:13;3.63;;;0.80;;
41629;SDS011;27322;49.488;8.480;2023-11-19T10:34:42;3.55;;;0.82;;
41629;SDS011;27322;49.488;8.480;2023-11-19T10:37:08;2.95;;;0.63;;
41629;SDS011;27322;49.488;8.480;2023-11-19T10:39:52;1.85;;;0.57;;
41629;SDS011;27322;49.488;8.480;2023-11-19T10:42:19;1.30;;;0.60;;
41629;SDS011;27322;49.488;8.480;2023-11-19T10:44:45;2.92;;;0.75;;
41629;SDS011;27322;49.488;8.480;2023-11-19T10:47:11;1.90;;;0.82;;
41629;SDS011;27322;49.488;8.480;2023-11-19T10:49:38;2.97;;;0.70;;
41629;SDS011;27322;49.488;8.480;2023-11-19T10:52:05;3.47;;;0.70;;
41629;SDS011;27322;49.488;8.480;2023-11-19T10:54:34;1.83;;;0.80;;
41629;SDS011;27322;49.488;8.480;2023-11-19T10:56:59;2.17;;;0.60;;
41629;SDS011;27322;49.488;8.480;2023-11-19T10:59:30;5.18;;;0.85;;
41629;SDS011;27322;49.488;8.480;2023-11-19T11:01:59;1.85;;;0.57;;
41629;SDS011;27322;49.488;8.480;2023-11-19T11:04:30;2.72;;;0.60;;
41629;SDS011;27322;49.488;8.480;2023-11-19T11:06:58;2.10;;;0.77;;
41629;SDS011;27322;49.488;8.480;2023-11-19T11:09:26;2.55;;;0.70;;
41629;SDS011;27322;49.488;8.480;2023-11-19T11:11:53;2.47;;;0.70;;
41629;SDS011;27322;49.488;8.480;2023-11-19T11:14:20;2.45;;;0.75;;
41629;SDS011;27322;49.488;8.480;2023-11-19T11:16:47;4.30;;;1.27;;
41629;SDS011;27322;49.488;8.480;2023-11-19T11:19:15;2.65;;;0.70;;
41629;SDS011;27322;49.488;8.480;2023-11-19T11:21:44;2.22;;;0.60;;
41629;SDS011;27322;49.488;8.480;2023-11-19T11:29:09;2.40;;;0.60;;
41629;SDS011;27322;49.488;8.480;2023-11-19T11:37:21;4.22;;;0.90;;
41629;SDS011;27322;49.488;8.480;2023-11-19T11:39:57;6.53;;;1.08;;
41629;SDS011;27322;49.488;8.480;2023-11-19T11:50:09;1.42;;;0.65;;
41629;SDS011;27322;49.488;8.480;2023-11-19T11:58:02;3.33;;;0.90;;
41629;SDS011;27322;49.488;8.480;2023-11-19T12:03:19;2.92;;;0.70;;
41629;SDS011;27322;49.488;8.480;2023-11-19T12:05:47;1.60;;;0.55;;
41629;SDS011;27322;49.488;8.480;2023-11-19T12:08:13;3.25;;;0.82;;
41629;SDS011;27322;49.488;8.480;2023-11-19T12:20:57;2.33;;;0.70;;
41629;SDS011;27322;49.488;8.480;2023-11-19T12:23:30;3.13;;;0.80;;
41629;SDS011;27322;49.488;8.480;2023-11-19T12:25:56;3.50;;;0.70;;
41629;SDS011;27322;49.488;8.480;2023-11-19T12:28:22;1.63;;;0.70;;
41629;SDS011;27322;49.488;8.480;2023-11-19T12:30:49;3.03;;;0.75;;
41629;SDS011;27322;49.488;8.480;2023-11-19T12:33:16;1.60;;;0.60;;
41629;SDS011;27322;49.488;8.480;2023-11-19T12:35:42;3.53;;;0.70;;
41629;SDS011;27322;49.488;8.480;2023-11-19T12:38:22;3.95;;;0.70;;
41629;SDS011;27322;49.488;8.480;2023-11-19T12:41:07;2.92;;;0.90;;
41629;SDS011;27322;49.488;8.480;2023-11-19T12:43:36;3.25;;;0.82;;
41629;SDS011;27322;49.488;8.480;2023-11-19T12:46:21;4.35;;;0.82;;
41629;SDS011;27322;49.488;8.480;2023-11-19T12:48:50;3.78;;;0.80;;
41629;SDS011;27322;49.488;8.480;2023-11-19T12:51:16;4.18;;;0.82;;
41629;SDS011;27322;49.488;8.480;2023-11-19T12:53:49;2.50;;;0.80;;
41629;SDS011;27322;49.488;8.480;2023-11-19T12:56:23;3.67;;;0.73;;
41629;SDS011;27322;49.488;8.480;2023-11-19T12:58:49;3.05;;;0.70;;
41629;SDS011;27322;49.488;8.480;2023-11-19T13:01:18;4.85;;;0.80;;
41629;SDS011;27322;49.488;8.480;2023-11-19T13:03:45;2.17;;;0.60;;
41629;SDS011;27322;49.488;8.480;2023-11-19T13:06:12;5.38;;;0.93;;
41629;SDS011;27322;49.488;8.480;2023-11-19T13:08:46;3.03;;;0.80;;
41629;SDS011;27322;49.488;8.480;2023-11-19T13:11:32;4.85;;;0.75;;
41629;SDS011;27322;49.488;8.480;2023-11-19T13:14:00;2.08;;;0.50;;
41629;SDS011;27322;49.488;8.480;2023-11-19T13:16:33;3.88;;;0.80;;
41629;SDS011;27322;49.488;8.480;2023-11-19T13:19:01;4.60;;;0.85;;
41629;SDS011;27322;49.488;8.480;2023-11-19T13:21:27;4.43;;;1.17;;
41629;SDS011;27322;49.488;8.480;2023-11-19T13:23:54;5.13;;;1.13;;
41629;SDS011;27322;49.488;8.480;2023-11-19T13:26:20;3.90;;;0.90;;
41629;SDS011;27322;49.488;8.480;2023-11-19T13:28:46;3.28;;;0.65;;
41629;SDS011;27322;49.488;8.480;2023-11-19T13:31:12;2.35;;;0.70;;
41629;SDS011;27322;49.488;8.480;2023-11-19T13:33:37;1.90;;;0.70;;
41629;SDS011;27322;49.488;8.480;2023-11-19T13:36:04;5.03;;;0.75;;
41629;SDS011;27322;49.488;8.480;2023-11-19T13:38:33;5.13;;;0.80;;
41629;SDS011;27322;49.488;8.480;2023-11-19T13:41:02;2.53;;;0.80;;
41629;SDS011;27322;49.488;8.480;2023-11-19T13:43:29;4.68;;;0.82;;
41629;SDS011;27322;49.488;8.480;2023-11-19T13:45:55;3.83;;;0.68;;
41629;SDS011;27322;49.488;8.480;2023-11-19T13:48:21;6.50;;;0.88;;
41629;SDS011;27322;49.488;8.480;2023-11-19T13:50:47;3.72;;;0.63;;
41629;SDS011;27322;49.488;8.480;2023-11-19T13:53:13;3.40;;;0.70;;
41629;SDS011;27322;49.488;8.480;2023-11-19T13:55:38;3.85;;;0.77;;
41629;SDS011;27322;49.488;8.480;2023-11-19T13:58:04;2.70;;;0.70;;
41629;SDS011;27322;49.488;8.480;2023-11-19T14:00:29;5.13;;;0.68;;
41629;SDS011;27322;49.488;8.480;2023-11-19T14:02:55;1.45;;;0.57;;
41629;SDS011;27322;49.488;8.480;2023-11-19T14:05:20;1.90;;;0.52;;
41629;SDS011;27322;49.488;8.480;2023-11-19T14:07:46;3.15;;;0.52;;
41629;SDS011;27322;49.488;8.480;2023-11-19T14:10:16;2.08;;;0.60;;
41629;SDS011;27322;49.488;8.480;2023-11-19T14:12:42;2.83;;;0.57;;
41629;SDS011;27322;49.488;8.480;2023-11-19T14:15:08;6.05;;;0.55;;
41629;SDS011;27322;49.488;8.480;2023-11-19T14:17:38;2.35;;;0.50;;
41629;SDS011;27322;49.488;8.480;2023-11-19T14:20:04;3.42;;;0.40;;
41629;SDS011;27322;49.488;8.480;2023-11-19T14:22:38;3.35;;;0.70;;
41629;SDS011;27322;49.488;8.480;2023-11-19T14:25:05;2.47;;;0.60;;
41629;SDS011;27322;49.488;8.480;2023-11-19T14:27:34;3.17;;;0.63;;
41629;SDS011;27322;49.488;8.480;2023-11-19T14:30:11;3.17;;;0.80;;
41629;SDS011;27322;49.488;8.480;2023-11-19T14:32:41;5.28;;;0.70;;
41629;SDS011;27322;49.488;8.480;2023-11-19T14:35:08;2.95;;;0.70;;
41629;SDS011;27322;49.488;8.480;2023-11-19T14:37:34;2.80;;;0.77;;
41629;SDS011;27322;49.488;8.480;2023-11-19T14:40:00;3.30;;;0.85;;
41629;SDS011;27322;49.488;8.480;2023-11-19T14:42:28;3.10;;;0.85;;
41629;SDS011;27322;49.488;8.480;2023-11-19T14:44:54;4.93;;;0.60;;
41629;SDS011;27322;49.488;8.480;2023-11-19T14:47:22;3.28;;;0.85;;
41629;SDS011;27322;49.488;8.480;2023-11-19T14:49:48;3.38;;;0.60;;
41629;SDS011;27322;49.488;8.480;2023-11-19T14:52:14;2.47;;;0.70;;
41629;SDS011;27322;49.488;8.480;2023-11-19T14:54:40;2.60;;;0.50;;
41629;SDS011;27322;49.488;8.480;2023-11-19T14:57:06;2.20;;;0.63;;
41629;SDS011;27322;49.488;8.480;2023-11-19T14:59:34;2.67;;;0.50;;
41629;SDS011;27322;49.488;8.480;2023-11-19T15:02:04;1.83;;;0.50;;
41629;SDS011;27322;49.488;8.480;2023-11-19T15:04:30;2.60;;;0.60;;
41629;SDS011;27322;49.488;8.480;2023-11-19T15:06:57;3.83;;;0.70;;
41629;SDS011;27322;49.488;8.480;2023-11-19T15:09:23;3.80;;;0.60;;
41629;SDS011;27322;49.488;8.480;2023-11-19T15:11:49;2.30;;;0.60;;
41629;SDS011;27322;49.488;8.480;2023-11-19T15:14:15;2.78;;;0.60;;
41629;SDS011;27322;49.488;8.480;2023-11-19T15:16:43;5.13;;;1.23;;
41629;SDS011;27322;49.488;8.480;2023-11-19T15:19:10;2.00;;;0.57;;
41629;SDS011;27322;49.488;8.480;2023-11-19T15:21:37;3.42;;;0.60;;
41629;SDS011;27322;49.488;8.480;2023-11-19T15:24:03;2.30;;;0.45;;
41629;SDS011;27322;49.488;8.480;2023-11-19T15:26:32;1.98;;;0.50;;
41629;SDS011;27322;49.488;8.480;2023-11-19T15:29:04;2.65;;;0.57;;